Father Pat — WDG2791 — position and weather

sailwx.info

Track history (hours):
 
Tides and Currents Weather Stations Pressure Air Temp Water Temp Dewpoint Dewpoint Depression Visibility Wind Speed Wind Dir Waves Ship Positions

Father Pat

Owner: Marquette Transportation Company Gulf-Inland, LLC, Jefferson, LA. More information available from US FCC via Universal Licensing System and Coast Guard Vessel Documentation Center.

Last reported at 2015-Aug-27 10:33 UTC. Time now 2015-Aug-31 06:51 UTC.
Position N 29°34' W 090°56'.

Type: Towing. MMSI: 367519320.

Date/timePositionNaut miles runAvg speedWind from/ knotsBaromVisibWave heightAir tempDewpointWater temp
2015-Aug-27 10:33N 29°34' W 090°56'4 4.3
2015-Aug-27 09:32N 29°32' W 090°51'4 4.2
2015-Aug-27 08:33N 29°32' W 090°47'3 3.3
2015-Aug-27 07:33N 29°34' W 090°43'3 3.1
2015-Aug-27 06:33N 29°37' W 090°42'1 0.8
2015-Aug-27 05:33N 29°37' W 090°41'3 2.7
2015-Aug-27 04:33N 29°35' W 090°38'3 3.5
2015-Aug-27 03:33N 29°34' W 090°35'31 0.7
2015-Aug-25 09:31N 29°55' W 090°08'4 4.4
2015-Aug-25 08:33N 29°57' W 090°04'2 1.9
2015-Aug-25 07:31N 29°58' W 090°02'1 1.2
2015-Aug-25 06:33N 29°59' W 090°01'0 0.0
2015-Aug-25 05:33N 29°59' W 090°01'0 0.0
2015-Aug-25 04:30N 29°59' W 090°01'0 0.0
2015-Aug-25 03:33N 29°59' W 090°01'  
Track history (hours):
 
Tides and Currents Weather Stations Pressure Air Temp Water Temp Dewpoint Dewpoint Depression Visibility Wind Speed Wind Dir Waves Ship Positions

Father Pat

Owner: Marquette Transportation Company Gulf-Inland, LLC, Jefferson, LA. More information available from US FCC via Universal Licensing System and Coast Guard Vessel Documentation Center.

Last reported at 2015-Aug-27 10:33 UTC. Time now 2015-Aug-31 06:51 UTC.
Position N 29°34' W 090°56'.

Type: Towing. MMSI: 367519320.

Date/timePositionNaut miles runAvg speedWind from/ knotsBaromVisibWave heightAir tempDewpointWater temp
2015-Aug-27 10:33N 29°34' W 090°56'4 4.3
2015-Aug-27 09:32N 29°32' W 090°51'4 4.2
2015-Aug-27 08:33N 29°32' W 090°47'3 3.3
2015-Aug-27 07:33N 29°34' W 090°43'3 3.1
2015-Aug-27 06:33N 29°37' W 090°42'1 0.8
2015-Aug-27 05:33N 29°37' W 090°41'3 2.7
2015-Aug-27 04:33N 29°35' W 090°38'3 3.5
2015-Aug-27 03:33N 29°34' W 090°35'31 0.7
2015-Aug-25 09:31N 29°55' W 090°08'4 4.4
2015-Aug-25 08:33N 29°57' W 090°04'2 1.9
2015-Aug-25 07:31N 29°58' W 090°02'1 1.2
2015-Aug-25 06:33N 29°59' W 090°01'0 0.0
2015-Aug-25 05:33N 29°59' W 090°01'0 0.0
2015-Aug-25 04:30N 29°59' W 090°01'0 0.0
2015-Aug-25 03:33N 29°59' W 090°01'  

Dump ship's entire track history